TimeCDT,TemperatureF,Dew PointF,Humidity,Sea Level PressureIn,VisibilityMPH,Wind Direction,Wind SpeedMPH,Gust SpeedMPH,PrecipitationIn,Events,Conditions,WindDirDegrees,DateUTC
12:15 AM,23.0,8.6,54,29.89,10.0,NNW,11.5,-,N/A,,Clear,340,2013-04-01 05:15:00
12:35 AM,23.0,10.4,59,29.90,10.0,North,13.8,-,N/A,,Clear,360,2013-04-01 05:35:00
12:55 AM,23.0,14.0,68,29.90,10.0,NNW,8.1,-,N/A,,Clear,340,2013-04-01 05:55:00
1:15 AM,23.0,10.4,59,29.90,10.0,NNW,11.5,16.1,N/A,,Clear,330,2013-04-01 06:15:00
1:35 AM,23.0,10.4,59,29.91,10.0,NNW,6.9,-,N/A,,Clear,340,2013-04-01 06:35:00
1:55 AM,23.0,8.6,54,29.91,10.0,NNW,6.9,-,N/A,,Clear,340,2013-04-01 06:55:00
2:15 AM,21.2,8.6,58,29.92,10.0,NNW,9.2,-,N/A,,Clear,330,2013-04-01 07:15:00
2:35 AM,23.0,8.6,54,29.92,10.0,NNW,10.4,-,N/A,,Scattered Clouds,330,2013-04-01 07:35:00
3:15 AM,23.0,8.6,54,29.93,10.0,NW,11.5,23.0,N/A,,Overcast,320,2013-04-01 08:15:00
3:35 AM,23.0,8.6,54,29.93,10.0,NNW,9.2,-,N/A,,Mostly Cloudy,330,2013-04-01 08:35:00
3:55 AM,23.0,8.6,54,29.93,10.0,NNW,11.5,17.3,N/A,,Mostly Cloudy,330,2013-04-01 08:55:00
4:15 AM,21.2,8.6,58,29.94,10.0,NNW,11.5,16.1,N/A,,Mostly Cloudy,330,2013-04-01 09:15:00
4:35 AM,23.0,8.6,54,29.94,10.0,NNW,9.2,-,N/A,,Overcast,330,2013-04-01 09:35:00
5:15 AM,23.0,8.6,54,29.95,10.0,NNW,10.4,-,N/A,,Mostly Cloudy,330,2013-04-01 10:15:00
5:35 AM,21.2,8.6,58,29.95,10.0,NNW,12.7,-,N/A,,Overcast,330,2013-04-01 10:35:00
5:55 AM,21.2,10.4,63,29.96,10.0,NW,11.5,-,N/A,Snow,Light Snow,320,2013-04-01 10:55:00
6:15 AM,19.4,10.4,68,29.96,10.0,NW,12.7,18.4,N/A,,Overcast,320,2013-04-01 11:15:00
6:35 AM,19.4,10.4,68,29.96,10.0,NW,10.4,17.3,N/A,,Overcast,310,2013-04-01 11:35:00
6:55 AM,21.2,8.6,58,29.98,10.0,NNW,9.2,-,N/A,,Overcast,330,2013-04-01 11:55:00
7:15 AM,21.2,8.6,58,29.98,10.0,NNW,13.8,-,N/A,,Overcast,330,2013-04-01 12:15:00
7:35 AM,21.2,8.6,58,29.98,10.0,NNW,11.5,17.3,N/A,,Overcast,330,2013-04-01 12:35:00
7:55 AM,23.0,8.6,54,29.99,10.0,NNW,11.5,20.7,N/A,,Overcast,330,2013-04-01 12:55:00
8:15 AM,23.0,8.6,54,29.99,10.0,NW,15.0,20.7,N/A,,Overcast,320,2013-04-01 13:15:00
8:35 AM,23.0,8.6,54,30.00,10.0,NW,17.3,21.9,N/A,,Overcast,320,2013-04-01 13:35:00
8:55 AM,23.0,10.4,59,30.00,10.0,NW,11.5,21.9,N/A,,Overcast,320,2013-04-01 13:55:00
9:15 AM,23.0,10.4,59,30.00,10.0,NNW,12.7,20.7,N/A,,Overcast,330,2013-04-01 14:15:00
9:35 AM,23.0,10.4,59,30.00,10.0,NNW,12.7,17.3,N/A,,Mostly Cloudy,340,2013-04-01 14:35:00
9:55 AM,23.0,10.4,59,30.01,7.0,NNW,16.1,21.9,N/A,Snow,Light Snow,340,2013-04-01 14:55:00
10:15 AM,23.0,10.4,59,30.01,10.0,NW,16.1,21.9,N/A,,Mostly Cloudy,310,2013-04-01 15:15:00
10:35 AM,23.0,8.6,54,30.02,10.0,NW,16.1,24.2,N/A,,Scattered Clouds,320,2013-04-01 15:35:00
11:15 AM,23.0,8.6,54,30.02,10.0,NW,12.7,19.6,N/A,,Mostly Cloudy,320,2013-04-01 16:15:00
11:35 AM,23.0,10.4,59,30.03,10.0,NW,10.4,24.2,N/A,,Overcast,310,2013-04-01 16:35:00
11:55 AM,24.8,10.4,54,30.03,10.0,NNW,16.1,21.9,N/A,,Mostly Cloudy,330,2013-04-01 16:55:00
12:15 PM,24.8,8.6,50,30.03,10.0,NNW,16.1,26.5,N/A,,Mostly Cloudy,330,2013-04-01 17:15:00
12:35 PM,24.8,10.4,54,30.03,10.0,NNW,16.1,21.9,N/A,,Mostly Cloudy,340,2013-04-01 17:35:00
1:15 PM,26.6,8.6,47,30.03,10.0,WNW,10.4,19.6,N/A,,Overcast,300,2013-04-01 18:15:00
1:35 PM,26.6,8.6,47,30.03,10.0,NW,16.1,21.9,N/A,,Mostly Cloudy,320,2013-04-01 18:35:00
1:55 PM,26.6,6.8,43,30.03,10.0,NNW,13.8,24.2,N/A,,Scattered Clouds,330,2013-04-01 18:55:00
2:15 PM,26.6,6.8,43,30.03,10.0,NNW,18.4,25.3,N/A,,Scattered Clouds,340,2013-04-01 19:15:00
2:35 PM,28.4,6.8,40,30.03,10.0,NNW,15.0,19.6,N/A,,Scattered Clouds,340,2013-04-01 19:35:00
2:55 PM,28.4,6.8,40,30.03,10.0,NNW,12.7,25.3,N/A,,Scattered Clouds,340,2013-04-01 19:55:00
3:15 PM,26.6,5.0,40,30.03,10.0,NNW,12.7,23.0,N/A,,Scattered Clouds,330,2013-04-01 20:15:00
3:35 PM,28.4,5.0,37,30.03,10.0,NNW,8.1,19.6,N/A,,Scattered Clouds,330,2013-04-01 20:35:00
3:55 PM,28.4,5.0,37,30.03,10.0,NNW,13.8,19.6,N/A,,Scattered Clouds,330,2013-04-01 20:55:00
4:15 PM,30.2,8.6,40,30.02,10.0,NNW,10.4,21.9,N/A,,Scattered Clouds,330,2013-04-01 21:15:00
4:35 PM,30.2,5.0,34,30.03,10.0,NW,11.5,-,N/A,,Scattered Clouds,310,2013-04-01 21:35:00
4:55 PM,30.2,6.8,37,30.03,10.0,NW,8.1,18.4,N/A,,Scattered Clouds,320,2013-04-01 21:55:00
5:15 PM,30.2,6.8,37,30.03,10.0,NNW,18.4,23.0,N/A,,Clear,340,2013-04-01 22:15:00
5:35 PM,30.2,5.0,34,30.04,10.0,WNW,12.7,20.7,N/A,,Clear,300,2013-04-01 22:35:00
5:55 PM,30.2,6.8,37,30.04,10.0,NW,9.2,17.3,N/A,,Clear,320,2013-04-01 22:55:00
6:15 PM,30.2,5.0,34,30.04,10.0,NW,13.8,18.4,N/A,,Scattered Clouds,310,2013-04-01 23:15:00
6:35 PM,30.2,6.8,37,30.04,10.0,WNW,9.2,17.3,N/A,,Scattered Clouds,300,2013-04-01 23:35:00
6:55 PM,30.2,5.0,34,30.04,10.0,NW,10.4,-,N/A,,Scattered Clouds,320,2013-04-01 23:55:00
7:15 PM,28.4,5.0,37,30.04,10.0,WNW,12.7,18.4,N/A,,Scattered Clouds,300,2013-04-02 00:15:00
7:35 PM,28.4,5.0,37,30.04,10.0,WNW,6.9,-,N/A,,Clear,300,2013-04-02 00:35:00
7:55 PM,28.4,5.0,37,30.04,10.0,NW,4.6,-,N/A,,Clear,310,2013-04-02 00:55:00
8:15 PM,26.6,5.0,40,30.04,10.0,WNW,4.6,-,N/A,,Clear,290,2013-04-02 01:15:00
8:55 PM,26.6,5.0,40,30.05,10.0,WNW,4.6,-,N/A,,Clear,290,2013-04-02 01:55:00
9:15 PM,24.8,5.0,43,30.05,10.0,West,3.5,-,N/A,,Clear,280,2013-04-02 02:15:00
9:35 PM,24.8,5.0,43,30.06,10.0,West,3.5,-,N/A,,Clear,270,2013-04-02 02:35:00
9:55 PM,23.0,5.0,46,30.06,10.0,WNW,3.5,-,N/A,,Clear,290,2013-04-02 02:55:00
10:15 PM,23.0,5.0,46,30.06,10.0,WNW,3.5,-,N/A,,Clear,290,2013-04-02 03:15:00
10:35 PM,23.0,5.0,46,30.06,10.0,NW,4.6,-,N/A,,Clear,320,2013-04-02 03:35:00
10:55 PM,23.0,5.0,46,30.06,10.0,WNW,4.6,-,N/A,,Clear,290,2013-04-02 03:55:00
11:15 PM,23.0,5.0,46,30.06,10.0,Calm,Calm,-,N/A,,Clear,0,2013-04-02 04:15:00
11:35 PM,23.0,5.0,46,30.06,10.0,WNW,3.5,-,N/A,,Clear,300,2013-04-02 04:35:00
11:55 PM,23.0,5.0,46,30.06,10.0,Calm,Calm,-,N/A,,Clear,0,2013-04-02 04:55:00